createdAt,value
2018-03-01T00:00:06.980Z,-10.19
2018-03-01T00:01:07.311Z,-10.19
2018-03-01T00:02:06.414Z,-10.19
2018-03-01T00:03:05.954Z,-10.19
2018-03-01T00:04:05.948Z,-10.19
2018-03-01T00:05:05.746Z,-10.19
2018-03-01T00:06:06.171Z,-10.25
2018-03-01T00:07:05.652Z,-10.25
2018-03-01T00:08:05.971Z,-10.25
2018-03-01T00:09:06.250Z,-10.25
2018-03-01T00:10:06.012Z,-10.25
2018-03-01T00:11:06.280Z,-10.19
2018-03-01T00:12:05.976Z,-10.25
2018-03-01T00:13:07.388Z,-10.25
2018-03-01T00:14:05.948Z,-10.25
2018-03-01T00:15:06.191Z,-10.25
2018-03-01T00:16:05.795Z,-10.25
2018-03-01T00:17:06.040Z,-10.19
2018-03-01T00:18:06.104Z,-10.25
2018-03-01T00:19:05.716Z,-10.25
2018-03-01T00:20:05.882Z,-10.25
2018-03-01T00:21:05.892Z,-10.25
2018-03-01T00:22:06.408Z,-10.25
2018-03-01T00:23:05.878Z,-10.31
2018-03-01T00:24:10.783Z,-10.25
2018-03-01T00:25:06.172Z,-10.31
2018-03-01T00:26:05.844Z,-10.31
2018-03-01T00:27:05.908Z,-10.31
2018-03-01T00:28:06.518Z,-10.31
2018-03-01T00:29:06.676Z,-10.31
2018-03-01T00:30:05.657Z,-10.25
2018-03-01T00:31:06.201Z,-10.25
2018-03-01T00:32:06.112Z,-10.25
2018-03-01T00:33:06.026Z,-10.25
2018-03-01T00:34:05.732Z,-10.25
2018-03-01T00:35:06.471Z,-10.25
2018-03-01T00:36:06.417Z,-10.25
2018-03-01T00:37:05.785Z,-10.25
2018-03-01T00:38:06.219Z,-10.31
2018-03-01T00:39:06.017Z,-10.31
2018-03-01T00:40:05.772Z,-10.25
2018-03-01T00:41:05.981Z,-10.25
2018-03-01T00:42:06.461Z,-10.25
2018-03-01T00:43:06.254Z,-10.31
2018-03-01T00:44:06.332Z,-10.31
2018-03-01T00:45:07.391Z,-10.31
2018-03-01T00:46:06.428Z,-10.38
2018-03-01T00:47:05.716Z,-10.38
2018-03-01T00:48:06.628Z,-10.31
2018-03-01T00:49:05.756Z,-10.31
2018-03-01T00:50:06.125Z,-10.38
2018-03-01T00:51:06.532Z,-10.31
2018-03-01T00:52:05.716Z,-10.38
2018-03-01T00:53:05.786Z,-10.38
2018-03-01T00:54:05.930Z,-10.38
2018-03-01T00:55:06.440Z,-10.31
2018-03-01T00:56:06.062Z,-10.38
2018-03-01T00:57:05.762Z,-10.38
2018-03-01T00:58:06.332Z,-10.44
2018-03-01T00:59:06.485Z,-10.44
2018-03-01T01:00:06.131Z,-10.44
2018-03-01T01:01:06.182Z,-10.44
2018-03-01T01:02:05.856Z,-10.44
2018-03-01T01:03:06.249Z,-10.44
2018-03-01T01:04:06.010Z,-10.38
2018-03-01T01:05:06.437Z,-10.38
2018-03-01T01:06:06.254Z,-10.38
2018-03-01T01:07:06.250Z,-10.38
2018-03-01T01:08:05.648Z,-10.38
2018-03-01T01:09:11.335Z,-10.44
2018-03-01T01:10:05.948Z,-10.44
2018-03-01T01:11:06.101Z,-10.44
2018-03-01T01:12:06.259Z,-10.44
2018-03-01T01:13:05.942Z,-10.44
2018-03-01T01:14:05.945Z,-10.44
2018-03-01T01:15:05.703Z,-10.44
2018-03-01T01:16:06.500Z,-10.44
2018-03-01T01:17:06.299Z,-10.44
2018-03-01T01:18:06.211Z,-10.44
2018-03-01T01:19:06.370Z,-10.44
2018-03-01T01:20:05.767Z,-10.44
2018-03-01T01:21:06.194Z,-10.44
2018-03-01T01:22:06.593Z,-10.50
2018-03-01T01:23:06.530Z,-10.50
2018-03-01T01:24:06.478Z,-10.50
2018-03-01T01:25:06.076Z,-10.50
2018-03-01T01:26:06.669Z,-10.56
2018-03-01T01:27:11.185Z,-10.56
2018-03-01T01:28:06.517Z,-10.56
2018-03-01T01:29:06.529Z,-10.50
2018-03-01T01:30:10.636Z,-10.50
2018-03-01T01:31:05.935Z,-10.50
2018-03-01T01:32:06.257Z,-10.50
2018-03-01T01:33:06.044Z,-10.50
2018-03-01T01:34:06.355Z,-10.56
2018-03-01T01:35:06.418Z,-10.56
2018-03-01T01:36:06.015Z,-10.56
2018-03-01T01:37:06.271Z,-10.56
2018-03-01T01:38:06.410Z,-10.56
2018-03-01T01:39:05.904Z,-10.62
2018-03-01T01:40:11.141Z,-10.62
2018-03-01T01:41:05.757Z,-10.62
2018-03-01T01:42:06.309Z,-10.62
2018-03-01T01:43:05.765Z,-10.62
2018-03-01T01:44:06.258Z,-10.62
2018-03-01T01:45:06.340Z,-10.62
2018-03-01T01:46:06.184Z,-10.62
2018-03-01T01:47:11.183Z,-10.62
2018-03-01T01:48:05.693Z,-10.62
2018-03-01T01:49:06.508Z,-10.62
2018-03-01T01:50:10.528Z,-10.62
2018-03-01T01:51:05.917Z,-10.69
2018-03-01T01:52:10.964Z,-10.69
2018-03-01T01:53:06.445Z,-10.69
2018-03-01T01:54:05.744Z,-10.69
2018-03-01T01:55:06.043Z,-10.69
2018-03-01T01:56:05.784Z,-10.69
2018-03-01T01:57:05.859Z,-10.69
2018-03-01T01:58:06.002Z,-10.75
2018-03-01T01:59:06.106Z,-10.75
2018-03-01T02:00:05.755Z,-10.75
2018-03-01T02:01:05.990Z,-10.75
2018-03-01T02:02:06.435Z,-10.75
2018-03-01T02:03:06.180Z,-10.75
2018-03-01T02:04:05.841Z,-10.75
2018-03-01T02:05:06.247Z,-10.75
2018-03-01T02:06:06.106Z,-10.75
2018-03-01T02:07:06.079Z,-10.75
2018-03-01T02:08:05.980Z,-10.75
2018-03-01T02:09:06.324Z,-10.81
2018-03-01T02:10:05.938Z,-10.81
2018-03-01T02:11:05.505Z,-10.81
2018-03-01T02:12:06.065Z,-10.81
2018-03-01T02:13:05.965Z,-10.81
2018-03-01T02:14:05.780Z,-10.88
2018-03-01T02:15:05.952Z,-10.88
2018-03-01T02:16:06.217Z,-10.81
2018-03-01T02:17:06.345Z,-10.81
2018-03-01T02:18:06.183Z,-10.88
2018-03-01T02:19:06.275Z,-10.88
2018-03-01T02:20:05.758Z,-10.88
2018-03-01T02:21:06.341Z,-10.88
2018-03-01T02:22:06.481Z,-10.88
2018-03-01T02:23:06.513Z,-10.88
2018-03-01T02:24:06.350Z,-10.88
2018-03-01T02:25:06.073Z,-10.94
2018-03-01T02:26:06.430Z,-11.00
2018-03-01T02:27:05.915Z,-11.00
2018-03-01T02:28:05.875Z,-11.00
2018-03-01T02:29:05.815Z,-11.00
2018-03-01T02:30:06.342Z,-10.94
2018-03-01T02:31:06.156Z,-11.00
2018-03-01T02:32:05.876Z,-11.00
2018-03-01T02:33:06.276Z,-11.00
2018-03-01T02:34:06.561Z,-11.00
2018-03-01T02:35:07.469Z,-11.00
2018-03-01T02:36:05.982Z,-11.00
2018-03-01T02:37:06.015Z,-11.06
2018-03-01T02:38:05.769Z,-11.06
2018-03-01T02:39:06.276Z,-11.06
2018-03-01T02:40:05.895Z,-11.12
2018-03-01T02:41:11.361Z,-11.12
2018-03-01T02:42:06.024Z,-11.12
2018-03-01T02:43:05.879Z,-11.12
2018-03-01T02:44:06.343Z,-11.12
2018-03-01T02:45:06.450Z,-11.12
2018-03-01T02:46:06.213Z,-11.12
2018-03-01T02:47:06.451Z,-11.06
2018-03-01T02:48:06.057Z,-11.12
2018-03-01T02:49:06.667Z,-11.12
2018-03-01T02:50:05.793Z,-11.12
2018-03-01T02:51:06.195Z,-11.12
2018-03-01T02:52:05.882Z,-11.12
2018-03-01T02:53:06.088Z,-11.12
2018-03-01T02:54:06.433Z,-11.12
2018-03-01T02:55:05.862Z,-11.12
2018-03-01T02:56:05.807Z,-11.12
2018-03-01T02:57:06.026Z,-11.19
2018-03-01T02:58:06.451Z,-11.19
2018-03-01T02:59:06.176Z,-11.19
2018-03-01T03:00:05.775Z,-11.19
2018-03-01T03:01:06.023Z,-11.19
2018-03-01T03:02:06.225Z,-11.19
2018-03-01T03:03:06.314Z,-11.19
2018-03-01T03:04:05.760Z,-11.25
2018-03-01T03:05:06.092Z,-11.25
2018-03-01T03:06:05.791Z,-11.25
2018-03-01T03:07:06.280Z,-11.19
2018-03-01T03:08:06.532Z,-11.19
2018-03-01T03:09:06.174Z,-11.19
2018-03-01T03:10:06.185Z,-11.19
2018-03-01T03:11:07.241Z,-11.25
2018-03-01T03:12:05.952Z,-11.25
2018-03-01T03:13:06.114Z,-11.25
2018-03-01T03:14:05.858Z,-11.25
2018-03-01T03:15:11.419Z,-11.25
2018-03-01T03:16:05.807Z,-11.31
2018-03-01T03:17:06.852Z,-11.31
2018-03-01T03:18:05.879Z,-11.31
2018-03-01T03:19:06.793Z,-11.31
2018-03-01T03:20:11.197Z,-11.31
2018-03-01T03:21:05.869Z,-11.31
2018-03-01T03:22:06.344Z,-11.31
2018-03-01T03:23:06.054Z,-11.31
2018-03-01T03:24:06.416Z,-11.31
2018-03-01T03:25:06.057Z,-11.31
2018-03-01T03:26:06.327Z,-11.31
2018-03-01T03:27:06.593Z,-11.31
2018-03-01T03:28:05.888Z,-11.31
2018-03-01T03:29:05.813Z,-11.38
2018-03-01T03:30:06.190Z,-11.31
2018-03-01T03:31:06.332Z,-11.38
2018-03-01T03:32:06.207Z,-11.38
2018-03-01T03:33:06.275Z,-11.38
2018-03-01T03:34:05.835Z,-11.38
2018-03-01T03:35:06.138Z,-11.38
2018-03-01T03:36:06.417Z,-11.38
2018-03-01T03:37:06.294Z,-11.38
2018-03-01T03:38:06.699Z,-11.38
2018-03-01T03:39:11.128Z,-11.44
2018-03-01T03:40:05.900Z,-11.44
2018-03-01T03:41:05.740Z,-11.44
2018-03-01T03:42:06.335Z,-11.38
2018-03-01T03:43:05.908Z,-11.38
2018-03-01T03:44:06.416Z,-11.38
2018-03-01T03:45:05.817Z,-11.38
2018-03-01T03:46:06.132Z,-11.38
2018-03-01T03:47:05.803Z,-11.44
2018-03-01T03:48:06.059Z,-11.38
2018-03-01T03:49:06.546Z,-11.38
2018-03-01T03:50:06.784Z,-11.38
2018-03-01T03:51:06.085Z,-11.38
2018-03-01T03:52:05.859Z,-11.38
2018-03-01T03:53:05.856Z,-11.38
2018-03-01T03:54:06.340Z,-11.38
2018-03-01T03:55:05.866Z,-11.44
2018-03-01T03:56:06.198Z,-11.44
2018-03-01T03:57:06.225Z,-11.38
2018-03-01T03:58:06.526Z,-11.38
2018-03-01T03:59:05.974Z,-11.38
2018-03-01T04:00:06.108Z,-11.38
2018-03-01T04:01:05.881Z,-11.44
2018-03-01T04:02:06.114Z,-11.44
2018-03-01T04:03:06.173Z,-11.44
2018-03-01T04:04:06.359Z,-11.44
2018-03-01T04:05:05.832Z,-11.44
2018-03-01T04:06:06.102Z,-11.44
2018-03-01T04:07:06.315Z,-11.44
2018-03-01T04:08:06.446Z,-11.44
2018-03-01T04:09:06.613Z,-11.38
2018-03-01T04:10:05.894Z,-11.44
2018-03-01T04:11:06.862Z,-11.44
2018-03-01T04:12:06.006Z,-11.38
2018-03-01T04:13:06.529Z,-11.38
2018-03-01T04:14:05.855Z,-11.44
2018-03-01T04:15:11.439Z,-11.38
2018-03-01T04:16:05.925Z,-11.38
2018-03-01T04:17:10.719Z,-11.31
2018-03-01T04:18:06.090Z,-11.31
2018-03-01T04:19:05.921Z,-11.38
2018-03-01T04:20:05.872Z,-11.31
2018-03-01T04:21:05.859Z,-11.31
2018-03-01T04:22:06.504Z,-11.31
2018-03-01T04:23:06.127Z,-11.31
2018-03-01T04:24:06.436Z,-11.31
2018-03-01T04:25:05.816Z,-11.31
2018-03-01T04:26:05.550Z,-11.31
2018-03-01T04:27:06.974Z,-11.31
2018-03-01T04:28:05.787Z,-11.31
2018-03-01T04:29:10.537Z,-11.31
2018-03-01T04:30:10.618Z,-11.31
2018-03-01T04:31:06.121Z,-11.31
2018-03-01T04:32:06.063Z,-11.31
2018-03-01T04:33:06.136Z,-11.31
2018-03-01T04:34:05.871Z,-11.31
2018-03-01T04:35:06.260Z,-11.31
2018-03-01T04:36:06.683Z,-11.31
2018-03-01T04:37:06.446Z,-11.31
2018-03-01T04:38:06.193Z,-11.31
2018-03-01T04:39:05.927Z,-11.38
2018-03-01T04:40:06.430Z,-11.31
2018-03-01T04:41:06.257Z,-11.31
2018-03-01T04:42:06.191Z,-11.38
2018-03-01T04:43:05.969Z,-11.38
2018-03-01T04:44:06.109Z,-11.38
2018-03-01T04:45:06.332Z,-11.38
2018-03-01T04:46:06.433Z,-11.38
2018-03-01T04:47:06.090Z,-11.38
2018-03-01T04:48:06.042Z,-11.38
2018-03-01T04:49:06.194Z,-11.38
2018-03-01T04:50:06.097Z,-11.38
2018-03-01T04:51:06.436Z,-11.38
2018-03-01T04:52:06.116Z,-11.31
2018-03-01T04:53:06.336Z,-11.38
2018-03-01T04:54:05.931Z,-11.38
2018-03-01T04:55:06.651Z,-11.38
2018-03-01T04:56:05.871Z,-11.38
2018-03-01T04:57:06.424Z,-11.38
2018-03-01T04:58:06.458Z,-11.38
2018-03-01T04:59:06.142Z,-11.38
2018-03-01T05:00:05.675Z,-11.38
2018-03-01T05:01:05.852Z,-11.38
2018-03-01T05:02:05.936Z,-11.38
2018-03-01T05:03:05.945Z,-11.38
2018-03-01T05:04:06.020Z,-11.38
2018-03-01T05:05:05.942Z,-11.38
2018-03-01T05:06:06.363Z,-11.38
2018-03-01T05:07:05.899Z,-11.38
2018-03-01T05:08:05.911Z,-11.38
2018-03-01T05:09:05.916Z,-11.38
2018-03-01T05:10:06.252Z,-11.38
2018-03-01T05:11:06.246Z,-11.38
2018-03-01T05:12:06.667Z,-11.38
2018-03-01T05:13:05.992Z,-11.38
2018-03-01T05:14:06.431Z,-11.44
2018-03-01T05:15:06.576Z,-11.44
2018-03-01T05:16:06.515Z,-11.44
2018-03-01T05:17:06.367Z,-11.44
2018-03-01T05:18:06.057Z,-11.44
2018-03-01T05:19:11.021Z,-11.44
2018-03-01T05:20:05.878Z,-11.50
2018-03-01T05:21:05.997Z,-11.50
2018-03-01T05:22:05.881Z,-11.50
2018-03-01T05:23:06.081Z,-11.50
2018-03-01T05:24:05.973Z,-11.50
2018-03-01T05:25:06.176Z,-11.50
2018-03-01T05:26:06.122Z,-11.50
2018-03-01T05:27:06.316Z,-11.50
2018-03-01T05:28:06.512Z,-11.50
2018-03-01T05:29:06.480Z,-11.50
2018-03-01T05:30:06.433Z,-11.56
2018-03-01T05:31:06.029Z,-11.56
2018-03-01T05:32:06.541Z,-11.56
2018-03-01T05:33:06.014Z,-11.56
2018-03-01T05:34:05.624Z,-11.56
2018-03-01T05:35:05.954Z,-11.56
2018-03-01T05:36:05.997Z,-11.56
2018-03-01T05:37:05.981Z,-11.56
2018-03-01T05:38:06.164Z,-11.56
2018-03-01T05:39:05.632Z,-11.56
2018-03-01T05:40:06.383Z,-11.56
2018-03-01T05:41:05.910Z,-11.56
2018-03-01T05:42:06.976Z,-11.56
2018-03-01T05:43:06.347Z,-11.56
2018-03-01T05:44:06.040Z,-11.62
2018-03-01T05:45:05.986Z,-11.62
2018-03-01T05:46:06.202Z,-11.62
2018-03-01T05:47:05.977Z,-11.62
2018-03-01T05:48:06.029Z,-11.62
2018-03-01T05:49:06.253Z,-11.62
2018-03-01T05:50:06.763Z,-11.62
2018-03-01T05:51:06.854Z,-11.69
2018-03-01T05:52:06.344Z,-11.69
2018-03-01T05:53:05.931Z,-11.75
2018-03-01T05:54:06.200Z,-11.75
2018-03-01T05:55:05.919Z,-11.75
2018-03-01T05:56:06.176Z,-11.81
2018-03-01T05:57:06.173Z,-11.81
2018-03-01T05:58:06.132Z,-11.81
2018-03-01T05:59:06.369Z,-11.75
2018-03-01T06:00:05.967Z,-11.81
2018-03-01T06:01:11.410Z,-11.75
2018-03-01T06:02:06.125Z,-11.75
2018-03-01T06:03:06.428Z,-11.75
2018-03-01T06:04:06.021Z,-11.75
2018-03-01T06:05:06.206Z,-11.75
2018-03-01T06:06:06.374Z,-11.75
2018-03-01T06:07:06.497Z,-11.75
2018-03-01T06:08:10.571Z,-11.75
2018-03-01T06:09:06.166Z,-11.75
2018-03-01T06:10:06.113Z,-11.75
2018-03-01T06:11:06.521Z,-11.75
2018-03-01T06:12:05.947Z,-11.75
2018-03-01T06:13:05.918Z,-11.75
2018-03-01T06:14:06.435Z,-11.75
2018-03-01T06:15:06.040Z,-11.81
2018-03-01T06:16:06.033Z,-11.75
2018-03-01T06:17:05.944Z,-11.75
2018-03-01T06:18:06.353Z,-11.75
2018-03-01T06:19:06.138Z,-11.75
2018-03-01T06:20:06.431Z,-11.69
2018-03-01T06:21:10.473Z,-11.69
2018-03-01T06:22:06.024Z,-11.69
2018-03-01T06:23:05.666Z,-11.62
2018-03-01T06:24:06.068Z,-11.62
2018-03-01T06:25:06.342Z,-11.69
2018-03-01T06:26:05.941Z,-11.62
2018-03-01T06:27:06.231Z,-11.62
2018-03-01T06:28:05.993Z,-11.56
2018-03-01T06:29:15.657Z,-11.56
2018-03-01T06:30:06.275Z,-11.62
2018-03-01T06:31:06.420Z,-11.56
2018-03-01T06:32:05.971Z,-11.56
2018-03-01T06:33:06.432Z,-11.56
2018-03-01T06:34:06.421Z,-11.56
2018-03-01T06:35:05.971Z,-11.56
2018-03-01T06:36:05.609Z,-11.56
2018-03-01T06:37:11.408Z,-11.56
2018-03-01T06:38:06.009Z,-11.56
2018-03-01T06:39:05.664Z,-11.50
2018-03-01T06:40:06.292Z,-11.44
2018-03-01T06:41:05.656Z,-11.38
2018-03-01T06:42:06.196Z,-11.31
2018-03-01T06:43:06.024Z,-11.25
2018-03-01T06:44:06.087Z,-11.19
2018-03-01T06:45:06.082Z,-11.12
2018-03-01T06:46:06.344Z,-11.06
2018-03-01T06:47:05.990Z,-10.94
2018-03-01T06:48:06.389Z,-10.88
2018-03-01T06:49:06.199Z,-10.81
2018-03-01T06:50:06.339Z,-10.75
2018-03-01T06:51:06.091Z,-10.75
2018-03-01T06:52:06.356Z,-10.62
2018-03-01T06:53:06.105Z,-10.56
2018-03-01T06:54:05.672Z,-10.44
2018-03-01T06:55:06.170Z,-10.38
2018-03-01T06:56:06.075Z,-10.31
2018-03-01T06:57:06.178Z,-10.25
2018-03-01T06:58:06.000Z,-10.19
2018-03-01T06:59:05.630Z,-10.12
2018-03-01T07:00:06.332Z,-10.06
2018-03-01T07:01:06.315Z,-10.00
2018-03-01T07:02:05.702Z,-9.88
2018-03-01T07:03:06.008Z,-9.88
2018-03-01T07:04:05.942Z,-9.81
2018-03-01T07:05:05.975Z,-9.75
2018-03-01T07:06:11.029Z,-9.62
2018-03-01T07:07:06.450Z,-9.62
2018-03-01T07:08:06.963Z,-9.56
2018-03-01T07:09:06.115Z,-9.50
2018-03-01T07:10:06.036Z,-9.38
2018-03-01T07:11:06.055Z,-9.31
2018-03-01T07:12:06.440Z,-9.25
2018-03-01T07:13:06.208Z,-9.19
2018-03-01T07:14:06.533Z,-9.12
2018-03-01T07:15:05.943Z,-9.06
2018-03-01T07:16:06.120Z,-9.00
2018-03-01T07:17:06.345Z,-8.94
2018-03-01T07:18:06.191Z,-8.88
2018-03-01T07:19:06.110Z,-8.81
2018-03-01T07:20:11.275Z,-8.81
2018-03-01T07:21:11.441Z,-8.75
2018-03-01T07:22:06.010Z,-8.75
2018-03-01T07:23:06.069Z,-8.62
2018-03-01T07:24:06.440Z,-8.56
2018-03-01T07:25:05.713Z,-8.56
2018-03-01T07:26:06.080Z,-8.56
2018-03-01T07:27:06.699Z,-8.44
2018-03-01T07:28:06.330Z,-8.38
2018-03-01T07:29:06.084Z,-8.31
2018-03-01T07:30:06.255Z,-8.31
2018-03-01T07:31:05.772Z,-8.25
2018-03-01T07:32:06.430Z,-8.19
2018-03-01T07:33:06.297Z,-8.12
2018-03-01T07:34:05.753Z,-8.12
2018-03-01T07:35:05.969Z,-8.06
2018-03-01T07:36:06.026Z,-8.06
2018-03-01T07:37:10.883Z,-8.06
2018-03-01T07:38:06.353Z,-8.06
2018-03-01T07:39:06.081Z,-8.12
2018-03-01T07:40:06.310Z,-8.12
2018-03-01T07:41:05.987Z,-8.06
2018-03-01T07:42:06.185Z,-8.06
2018-03-01T07:43:06.177Z,-8.06
2018-03-01T07:44:06.112Z,-8.00
2018-03-01T07:45:06.147Z,-8.00
2018-03-01T07:46:06.355Z,-8.00
2018-03-01T07:47:06.175Z,-8.00
2018-03-01T07:48:06.093Z,-8.00
2018-03-01T07:49:06.221Z,-8.00
2018-03-01T07:50:05.681Z,-7.94
2018-03-01T07:51:06.161Z,-7.94
2018-03-01T07:52:06.443Z,-7.88
2018-03-01T07:53:05.968Z,-7.88
2018-03-01T07:54:05.957Z,-7.81
2018-03-01T07:55:06.241Z,-7.88
2018-03-01T07:56:06.191Z,-7.81
2018-03-01T07:57:06.040Z,-7.81
2018-03-01T07:58:06.352Z,-7.81
2018-03-01T07:59:06.337Z,-7.81
2018-03-01T08:00:06.200Z,-7.88
2018-03-01T08:01:06.351Z,-7.88
2018-03-01T08:02:06.167Z,-7.88
2018-03-01T08:03:10.938Z,-7.88
2018-03-01T08:04:06.260Z,-7.81
2018-03-01T08:05:05.720Z,-7.88
2018-03-01T08:06:11.195Z,-7.88
2018-03-01T08:07:06.048Z,-7.88
2018-03-01T08:08:06.340Z,-7.81
2018-03-01T08:09:06.224Z,-7.81
2018-03-01T08:10:05.748Z,-7.88
2018-03-01T08:11:06.030Z,-7.94
2018-03-01T08:12:06.116Z,-7.88
2018-03-01T08:13:11.130Z,-7.88
2018-03-01T08:14:06.532Z,-7.94
2018-03-01T08:15:10.571Z,-7.94
2018-03-01T08:16:06.034Z,-7.94
2018-03-01T08:17:06.243Z,-7.88
2018-03-01T08:18:05.713Z,-7.88
2018-03-01T08:19:06.332Z,-7.88
2018-03-01T08:20:11.333Z,-7.94
2018-03-01T08:21:05.755Z,-7.94
2018-03-01T08:22:06.198Z,-8.00
2018-03-01T08:23:06.384Z,-8.00
2018-03-01T08:24:05.815Z,-7.94
2018-03-01T08:25:06.356Z,-7.94
2018-03-01T08:26:06.099Z,-7.88
2018-03-01T08:27:05.625Z,-7.88
2018-03-01T08:28:06.378Z,-7.88
2018-03-01T08:29:06.968Z,-7.88
2018-03-01T08:30:06.212Z,-7.88
2018-03-01T08:31:05.604Z,-7.88
2018-03-01T08:32:06.279Z,-7.88
2018-03-01T08:33:06.110Z,-7.88
2018-03-01T08:34:06.074Z,-7.88
2018-03-01T08:35:05.698Z,-7.88
2018-03-01T08:36:06.363Z,-7.88
2018-03-01T08:37:06.220Z,-7.88
2018-03-01T08:38:06.155Z,-7.81
2018-03-01T08:39:06.409Z,-7.81
2018-03-01T08:40:05.822Z,-7.81
2018-03-01T08:41:06.283Z,-7.81
2018-03-01T08:42:06.137Z,-7.81
2018-03-01T08:43:06.227Z,-7.81
2018-03-01T08:44:11.289Z,-7.81
2018-03-01T08:45:05.777Z,-7.81
2018-03-01T08:46:06.093Z,-7.81
2018-03-01T08:47:06.315Z,-7.81
2018-03-01T08:48:06.427Z,-7.81
2018-03-01T08:49:06.327Z,-7.81
2018-03-01T08:50:05.658Z,-7.81
2018-03-01T08:51:06.142Z,-7.69
2018-03-01T08:52:06.536Z,-7.69
2018-03-01T08:53:06.274Z,-7.62
2018-03-01T08:54:06.758Z,-7.62
2018-03-01T08:55:05.784Z,-7.62
2018-03-01T08:56:06.108Z,-7.69
2018-03-01T08:57:06.962Z,-7.62
2018-03-01T08:58:05.753Z,-7.56
2018-03-01T08:59:07.308Z,-7.56
2018-03-01T09:00:06.108Z,-7.62
2018-03-01T09:01:06.324Z,-7.62
2018-03-01T09:02:05.820Z,-7.56
2018-03-01T09:03:06.137Z,-7.50
2018-03-01T09:04:05.801Z,-7.44
2018-03-01T09:05:06.098Z,-7.44
2018-03-01T09:06:06.172Z,-7.44
2018-03-01T09:07:06.356Z,-7.44
2018-03-01T09:08:06.347Z,-7.44
2018-03-01T09:09:06.430Z,-7.38
2018-03-01T09:10:06.612Z,-7.25
2018-03-01T09:11:05.761Z,-7.25
2018-03-01T09:12:06.017Z,-7.31
2018-03-01T09:13:06.978Z,-7.31
2018-03-01T09:14:06.103Z,-7.25
2018-03-01T09:15:06.100Z,-7.31
2018-03-01T09:16:06.168Z,-7.25
2018-03-01T09:17:06.521Z,-7.25
2018-03-01T09:18:05.752Z,-7.25
2018-03-01T09:19:06.018Z,-7.25
2018-03-01T09:20:06.133Z,-7.25
2018-03-01T09:21:06.206Z,-7.25
2018-03-01T09:22:06.109Z,-7.25
2018-03-01T09:23:06.337Z,-7.19
2018-03-01T09:24:06.080Z,-7.19
2018-03-01T09:25:06.372Z,-7.19
2018-03-01T09:26:10.889Z,-7.19
2018-03-01T09:27:05.683Z,-7.19
2018-03-01T09:28:06.156Z,-7.19
2018-03-01T09:29:06.139Z,-7.19
2018-03-01T09:30:06.181Z,-7.12
2018-03-01T09:31:10.956Z,-7.12
2018-03-01T09:32:11.136Z,-7.06
2018-03-01T09:33:05.747Z,-7.06
2018-03-01T09:34:06.150Z,-7.12
2018-03-01T09:35:05.818Z,-7.06
2018-03-01T09:36:06.098Z,-7.00
2018-03-01T09:37:06.133Z,-6.94
2018-03-01T09:38:06.263Z,-7.00
2018-03-01T09:39:11.176Z,-6.94
2018-03-01T09:40:06.127Z,-6.94
2018-03-01T09:41:06.983Z,-6.88
2018-03-01T09:42:06.307Z,-6.88
2018-03-01T09:43:05.829Z,-6.81
2018-03-01T09:44:06.171Z,-6.75
2018-03-01T09:45:06.377Z,-6.81
2018-03-01T09:46:06.038Z,-6.81
2018-03-01T09:47:06.889Z,-6.81
2018-03-01T09:48:06.225Z,-6.81
2018-03-01T09:49:06.221Z,-6.75
2018-03-01T09:50:05.818Z,-6.75
2018-03-01T09:51:06.057Z,-6.69
2018-03-01T09:52:05.729Z,-6.69
2018-03-01T09:53:06.604Z,-6.75
2018-03-01T09:54:10.648Z,-6.75
2018-03-01T09:55:06.245Z,-6.75
2018-03-01T09:56:06.298Z,-6.69
2018-03-01T09:57:06.452Z,-6.69
2018-03-01T09:58:05.880Z,-6.69
2018-03-01T09:59:05.785Z,-6.62
2018-03-01T10:00:06.207Z,-6.62
2018-03-01T10:01:05.767Z,-6.62
2018-03-01T10:02:06.303Z,-6.62
2018-03-01T10:03:06.360Z,-6.56
2018-03-01T10:04:07.305Z,-6.62
2018-03-01T10:05:06.185Z,-6.56
2018-03-01T10:06:06.419Z,-6.50
2018-03-01T10:07:06.098Z,-6.44
2018-03-01T10:08:06.404Z,-6.44
2018-03-01T10:09:05.726Z,-6.38
2018-03-01T10:10:06.811Z,-6.38
2018-03-01T10:11:06.364Z,-6.31
2018-03-01T10:12:05.764Z,-6.31
2018-03-01T10:13:06.380Z,-6.25
2018-03-01T10:14:05.704Z,-6.25
2018-03-01T10:15:06.084Z,-6.25
2018-03-01T10:16:06.145Z,-6.25
2018-03-01T10:17:06.333Z,-6.25
2018-03-01T10:18:06.305Z,-6.25
2018-03-01T10:19:06.417Z,-6.25
2018-03-01T10:20:06.113Z,-6.25
2018-03-01T10:21:06.168Z,-6.19
2018-03-01T10:22:06.374Z,-6.12
2018-03-01T10:23:11.052Z,-6.12
2018-03-01T10:24:06.502Z,-6.19
2018-03-01T10:25:05.776Z,-6.12
2018-03-01T10:26:06.117Z,-6.12
2018-03-01T10:27:06.718Z,-6.06
2018-03-01T10:28:06.233Z,-6.06
2018-03-01T10:29:05.791Z,-6.00
2018-03-01T10:30:06.215Z,-6.00
2018-03-01T10:31:06.300Z,-6.00
2018-03-01T10:32:06.453Z,-5.94
2018-03-01T10:33:06.182Z,-5.94
2018-03-01T10:34:06.441Z,-5.94
2018-03-01T10:35:06.199Z,-5.88
2018-03-01T10:36:06.190Z,-5.81
2018-03-01T10:37:06.405Z,-5.75
2018-03-01T10:38:05.830Z,-5.69
2018-03-01T10:39:05.893Z,-5.69
2018-03-01T10:40:06.194Z,-5.69
2018-03-01T10:41:06.354Z,-5.69
2018-03-01T10:42:06.350Z,-5.69
2018-03-01T10:43:05.848Z,-5.69
2018-03-01T10:44:05.919Z,-5.62
2018-03-01T10:45:06.164Z,-5.56
2018-03-01T10:46:10.717Z,-5.62
2018-03-01T10:47:06.219Z,-5.56
2018-03-01T10:48:06.492Z,-5.50
2018-03-01T10:49:05.900Z,-5.50
2018-03-01T10:50:06.196Z,-5.50
2018-03-01T10:51:06.218Z,-5.50
2018-03-01T10:52:05.810Z,-5.50
2018-03-01T10:53:06.254Z,-5.44
2018-03-01T10:54:06.289Z,-5.38
2018-03-01T10:55:06.144Z,-5.44
2018-03-01T10:56:06.202Z,-5.44
2018-03-01T10:57:06.244Z,-5.38
2018-03-01T10:58:10.985Z,-5.38
2018-03-01T10:59:05.825Z,-5.38
2018-03-01T11:00:06.136Z,-5.31
2018-03-01T11:01:06.453Z,-5.25
2018-03-01T11:02:06.193Z,-5.25
2018-03-01T11:03:06.245Z,-5.19
2018-03-01T11:04:11.214Z,-5.19
2018-03-01T11:05:11.469Z,-5.19
2018-03-01T11:06:06.183Z,-5.12
2018-03-01T11:07:06.350Z,-5.19
2018-03-01T11:08:05.850Z,-5.12
2018-03-01T11:09:06.364Z,-5.12
2018-03-01T11:10:06.136Z,-5.06
2018-03-01T11:11:06.420Z,-5.06
2018-03-01T11:12:06.644Z,-5.06
2018-03-01T11:13:06.184Z,-5.00
2018-03-01T11:14:06.142Z,-5.00
2018-03-01T11:15:06.214Z,-5.00
2018-03-01T11:16:05.975Z,-4.94
2018-03-01T11:17:06.531Z,-4.94
2018-03-01T11:18:06.868Z,-4.94
2018-03-01T11:19:06.488Z,-4.94
2018-03-01T11:20:06.402Z,-4.94
2018-03-01T11:21:05.983Z,-4.88
2018-03-01T11:22:06.292Z,-4.81
2018-03-01T11:23:11.207Z,-4.81
2018-03-01T11:24:05.781Z,-4.81
2018-03-01T11:25:06.177Z,-4.75
2018-03-01T11:26:05.795Z,-4.69
2018-03-01T11:27:06.469Z,-4.62
2018-03-01T11:28:05.892Z,-4.62
2018-03-01T11:29:06.385Z,-4.56
2018-03-01T11:30:05.900Z,-4.56
2018-03-01T11:31:06.300Z,-4.56
2018-03-01T11:32:05.895Z,-4.56
2018-03-01T11:33:06.404Z,-4.56
2018-03-01T11:34:06.413Z,-4.56
2018-03-01T11:35:06.172Z,-4.50
2018-03-01T11:36:05.596Z,-4.56
2018-03-01T11:37:06.285Z,-4.50
2018-03-01T11:38:06.360Z,-4.50
2018-03-01T11:39:10.629Z,-4.50
2018-03-01T11:40:05.919Z,-4.44
2018-03-01T11:41:06.268Z,-4.44
2018-03-01T11:42:06.310Z,-4.38
2018-03-01T11:43:05.874Z,-4.31
2018-03-01T11:44:06.274Z,-4.31
2018-03-01T11:45:06.719Z,-4.31
2018-03-01T11:46:06.308Z,-4.31
2018-03-01T11:47:06.468Z,-4.31
2018-03-01T11:48:06.026Z,-4.25
2018-03-01T11:49:06.275Z,-4.25
2018-03-01T11:50:06.317Z,-4.19
2018-03-01T11:51:06.205Z,-4.12
2018-03-01T11:52:10.819Z,-4.12
2018-03-01T11:53:05.804Z,-4.12
2018-03-01T11:54:06.446Z,-4.19
2018-03-01T11:55:06.276Z,-4.12
2018-03-01T11:56:06.544Z,-4.12
2018-03-01T11:57:05.993Z,-4.19
2018-03-01T11:58:05.914Z,-4.12
2018-03-01T11:59:06.327Z,-4.12
2018-03-01T12:00:05.924Z,-4.12
2018-03-01T12:01:06.403Z,-4.06
2018-03-01T12:02:10.584Z,-4.06
2018-03-01T12:03:06.223Z,-4.06
2018-03-01T12:04:05.894Z,-4.00
2018-03-01T12:05:06.439Z,-4.00
2018-03-01T12:06:05.956Z,-4.00
2018-03-01T12:07:06.262Z,-4.00
2018-03-01T12:08:06.452Z,-3.88
2018-03-01T12:09:10.894Z,-3.88
2018-03-01T12:10:06.513Z,-3.88
2018-03-01T12:11:06.219Z,-3.88
2018-03-01T12:12:10.760Z,-3.88
2018-03-01T12:13:05.920Z,-3.88
2018-03-01T12:14:05.950Z,-3.81
2018-03-01T12:15:06.291Z,-3.81
2018-03-01T12:16:05.942Z,-3.81
2018-03-01T12:17:06.540Z,-3.81
2018-03-01T12:18:05.946Z,-3.81
2018-03-01T12:19:06.046Z,-3.81
2018-03-01T12:20:05.948Z,-3.75
2018-03-01T12:21:06.535Z,-3.81
2018-03-01T12:22:10.860Z,-3.75
2018-03-01T12:23:05.950Z,-3.75
2018-03-01T12:24:05.986Z,-3.69
2018-03-01T12:25:05.816Z,-3.62
2018-03-01T12:26:06.414Z,-3.56
2018-03-01T12:27:06.309Z,-3.62
2018-03-01T12:28:06.319Z,-3.56
2018-03-01T12:29:05.935Z,-3.56
2018-03-01T12:30:06.350Z,-3.62
2018-03-01T12:31:05.895Z,-3.56
2018-03-01T12:32:06.431Z,-3.56
2018-03-01T12:33:05.639Z,-3.50
2018-03-01T12:34:06.315Z,-3.50
2018-03-01T12:35:05.983Z,-3.44
2018-03-01T12:36:05.933Z,-3.44
2018-03-01T12:37:06.373Z,-3.44
2018-03-01T12:38:10.797Z,-3.44
2018-03-01T12:39:06.415Z,-3.44